Time;durP1;ratioP1;P1;durP2;ratioP2;P2;SDS_P1;SDS_P2;PMS_P1;PMS_P2;Temp;Humidity;BMP_temperature;BMP_pressure;BME280_temperature;BME280_humidity;BME280_pressure;Samples;Min_cycle;Max_cycle;Signal;HPM_P1;HPM_P2
2021/07/20 00:00:08;;;;;;;12.18;7.50;;;16.10;99.90;;;;;;6137395;23;20056;-79
2021/07/20 00:02:35;;;;;;;13.70;7.00;;;16.20;99.90;;;;;;6161041;23;20453;-79
2021/07/20 00:05:02;;;;;;;10.65;7.32;;;16.30;99.90;;;;;;6154996;23;20108;-79
2021/07/20 00:07:28;;;;;;;9.93;6.97;;;16.30;99.90;;;;;;6153771;23;20014;-80
2021/07/20 00:09:53;;;;;;;10.00;7.07;;;16.30;99.90;;;;;;6127387;23;20024;-79
2021/07/20 00:12:19;;;;;;;10.40;7.13;;;16.20;99.90;;;;;;6163116;23;20017;-78
2021/07/20 00:14:45;;;;;;;11.20;7.00;;;16.30;99.90;;;;;;6164725;23;20013;-79
2021/07/20 00:17:11;;;;;;;10.15;6.80;;;16.30;99.90;;;;;;6163208;23;20032;-79
2021/07/20 00:19:37;;;;;;;9.90;6.90;;;16.30;99.90;;;;;;6165721;23;20018;-80
2021/07/20 00:22:03;;;;;;;9.60;6.63;;;16.30;99.90;;;;;;6157489;23;20060;-79
2021/07/20 00:24:28;;;;;;;14.48;7.07;;;16.20;99.90;;;;;;6128760;23;20024;-80
2021/07/20 00:26:54;;;;;;;12.48;7.05;;;16.20;99.90;;;;;;6155055;23;20022;-80
2021/07/20 00:29:20;;;;;;;12.32;7.13;;;16.30;99.90;;;;;;6105343;23;20394;-78
2021/07/20 00:31:46;;;;;;;10.45;6.93;;;16.30;99.90;;;;;;6138603;23;20013;-79
2021/07/20 00:34:12;;;;;;;11.27;7.03;;;16.30;99.90;;;;;;6154231;23;20009;-78
2021/07/20 00:36:38;;;;;;;13.32;7.55;;;16.30;99.90;;;;;;6154116;23;20013;-79
2021/07/20 00:39:05;;;;;;;12.65;6.63;;;16.30;99.90;;;;;;6128781;23;20434;-79
2021/07/20 00:41:31;;;;;;;11.27;7.18;;;16.30;99.90;;;;;;6164690;23;20045;-80
2021/07/20 00:43:57;;;;;;;11.43;7.05;;;16.30;99.90;;;;;;6165229;23;20009;-80
2021/07/20 00:46:23;;;;;;;12.00;6.68;;;16.30;99.90;;;;;;6127206;23;20434;-79
2021/07/20 00:48:49;;;;;;;11.48;6.97;;;16.40;99.90;;;;;;6155728;23;20018;-78
2021/07/20 00:51:15;;;;;;;9.32;6.82;;;16.40;99.90;;;;;;6155341;23;20020;-79
2021/07/20 00:53:41;;;;;;;13.88;7.18;;;16.30;99.90;;;;;;6165099;23;20033;-78
2021/07/20 00:56:07;;;;;;;11.27;7.03;;;16.40;99.90;;;;;;6127907;23;20142;-79
2021/07/20 00:58:35;;;;;;;12.90;7.63;;;16.40;99.90;;;;;;6155881;23;20013;-79
2021/07/20 01:01:01;;;;;;;13.40;7.60;;;16.40;99.90;;;;;;6128796;23;20057;-78
2021/07/20 01:03:27;;;;;;;13.55;7.57;;;16.30;99.90;;;;;;6125267;23;20022;-79
2021/07/20 01:05:55;;;;;;;14.98;8.15;;;16.40;99.90;;;;;;6152984;23;20384;-80
2021/07/20 01:08:21;;;;;;;12.18;7.72;;;16.40;99.90;;;;;;6126994;23;20018;-80
2021/07/20 01:10:48;;;;;;;12.65;7.85;;;16.30;99.90;;;;;;6165751;23;20056;-79
2021/07/20 01:13:14;;;;;;;12.63;7.68;;;16.30;99.90;;;;;;6164259;23;20434;-79
2021/07/20 01:15:42;;;;;;;12.02;8.23;;;16.40;99.90;;;;;;6164689;23;20063;-80
2021/07/20 01:18:08;;;;;;;13.70;7.95;;;16.30;99.90;;;;;;6127566;23;20017;-79
2021/07/20 01:20:35;;;;;;;16.25;8.05;;;16.30;99.90;;;;;;6164899;23;20068;-79
2021/07/20 01:23:18;;;;;;;14.20;8.48;;;16.30;99.90;;;;;;6154671;23;20009;-79
2021/07/20 01:25:44;;;;;;;14.10;8.15;;;16.30;99.90;;;;;;6153190;23;20453;-79
2021/07/20 01:28:18;;;;;;;13.65;8.85;;;16.30;99.90;;;;;;6137147;23;20343;-79
2021/07/20 01:30:47;;;;;;;16.92;8.55;;;16.30;99.90;;;;;;6128884;23;20065;-79
2021/07/20 01:33:15;;;;;;;20.13;9.63;;;16.30;99.90;;;;;;6137336;23;20013;-80
2021/07/20 01:35:44;;;;;;;23.77;9.10;;;16.20;99.90;;;;;;6137577;23;20088;-80
2021/07/20 01:38:11;;;;;;;17.52;8.52;;;16.20;99.90;;;;;;6137496;23;20009;-80
2021/07/20 01:40:38;;;;;;;14.50;8.15;;;16.30;99.90;;;;;;6128517;23;20017;-79
2021/07/20 01:43:05;;;;;;;16.15;8.65;;;16.40;99.90;;;;;;6164589;23;20017;-80
2021/07/20 01:45:34;;;;;;;21.27;9.15;;;16.20;99.90;;;;;;6153373;23;20013;-79
2021/07/20 01:48:04;;;;;;;14.68;8.35;;;16.30;99.90;;;;;;6129506;23;20014;-79
2021/07/20 01:50:31;;;;;;;14.98;9.05;;;16.20;99.90;;;;;;6164199;23;20014;-79
2021/07/20 01:52:58;;;;;;;20.50;8.75;;;16.30;99.90;;;;;;6127316;23;20017;-80
2021/07/20 01:55:26;;;;;;;17.67;9.18;;;16.30;99.90;;;;;;6162621;23;20048;-79
2021/07/20 01:57:53;;;;;;;16.52;9.10;;;16.20;99.90;;;;;;6154517;23;20084;-79
2021/07/20 02:00:19;;;;;;;13.65;8.60;;;16.20;99.90;;;;;;6153037;23;20378;-80
2021/07/20 02:08:28;;;;;;;17.90;9.20;;;16.20;99.90;;;;;;6164518;23;20022;-78
2021/07/20 02:10:59;;;;;;;13.73;9.27;;;16.20;99.90;;;;;;6138261;23;20014;-78
2021/07/20 02:13:27;;;;;;;17.20;9.32;;;16.20;99.90;;;;;;6128769;23;20013;-79
2021/07/20 02:15:54;;;;;;;18.05;8.30;;;16.20;99.90;;;;;;6128464;23;20088;-79
2021/07/20 02:18:25;;;;;;;12.63;8.70;;;16.20;99.90;;;;;;6163377;23;20014;-78
2021/07/20 02:20:51;;;;;;;17.38;9.10;;;16.10;99.90;;;;;;6154631;23;20017;-80
2021/07/20 02:23:18;;;;;;;13.80;9.02;;;16.20;99.90;;;;;;6163037;23;20017;-79
2021/07/20 02:25:46;;;;;;;20.10;9.50;;;16.20;99.90;;;;;;6153557;23;20378;-79
2021/07/20 02:28:12;;;;;;;16.77;9.00;;;16.20;99.90;;;;;;6103494;23;20013;-80
2021/07/20 02:30:39;;;;;;;15.65;9.65;;;16.20;99.90;;;;;;6138300;23;20020;-79
2021/07/20 02:33:08;;;;;;;15.48;9.38;;;16.30;99.90;;;;;;6162483;23;20020;-79
2021/07/20 02:35:38;;;;;;;15.48;9.70;;;16.20;99.90;;;;;;6153151;23;20009;-79
2021/07/20 02:38:06;;;;;;;13.55;9.25;;;16.20;99.90;;;;;;6153210;23;20076;-79
2021/07/20 02:40:34;;;;;;;15.50;9.80;;;16.30;99.90;;;;;;6154081;23;20500;-80
2021/07/20 02:43:01;;;;;;;15.90;10.05;;;16.20;99.90;;;;;;6164625;23;20048;-79
2021/07/20 02:45:33;;;;;;;15.57;9.15;;;16.20;99.90;;;;;;6153559;23;20014;-79
2021/07/20 02:47:59;;;;;;;15.43;9.43;;;16.20;99.90;;;;;;6155695;23;20018;-79
2021/07/20 02:50:27;;;;;;;15.80;9.70;;;16.20;99.90;;;;;;6164094;23;20017;-79
2021/07/20 02:52:53;;;;;;;18.45;9.65;;;16.20;99.90;;;;;;6155009;23;20478;-79
2021/07/20 02:55:19;;;;;;;16.77;9.40;;;16.20;99.90;;;;;;6127241;23;20092;-79
2021/07/20 02:57:48;;;;;;;15.88;9.98;;;16.20;99.90;;;;;;6128428;23;20022;-79
2021/07/20 03:00:14;;;;;;;15.75;9.52;;;16.20;99.90;;;;;;6136973;23;20013;-79
2021/07/20 03:02:45;;;;;;;15.90;9.82;;;16.20;99.90;;;;;;6162546;23;20016;-78
2021/07/20 03:05:15;;;;;;;14.93;9.38;;;16.20;99.90;;;;;;6129245;23;20041;-78
2021/07/20 03:07:54;;;;;;;14.95;9.55;;;16.20;99.90;;;;;;6156160;23;20014;-78
2021/07/20 03:10:23;;;;;;;17.45;9.85;;;16.20;99.90;;;;;;6127959;23;20446;-78
2021/07/20 03:12:51;;;;;;;15.02;9.35;;;16.10;99.90;;;;;;6163775;23;20024;-79
2021/07/20 03:15:18;;;;;;;15.13;9.95;;;16.10;99.90;;;;;;6137629;23;20088;-80
2021/07/20 03:17:45;;;;;;;16.88;10.18;;;16.10;99.90;;;;;;6137254;23;20092;-79
2021/07/20 03:20:15;;;;;;;13.10;8.82;;;16.10;99.90;;;;;;6154174;23;20017;-78
2021/07/20 03:22:42;;;;;;;17.30;9.95;;;16.10;99.90;;;;;;6153772;23;20009;-80
2021/07/20 03:25:10;;;;;;;15.52;9.30;;;16.10;99.90;;;;;;6136821;23;20060;-79
2021/07/20 03:27:39;;;;;;;16.67;10.00;;;16.10;99.90;;;;;;6162536;23;20021;-79
2021/07/20 03:30:07;;;;;;;17.65;9.90;;;16.10;99.90;;;;;;6153776;23;20017;-78
2021/07/20 03:32:33;;;;;;;14.82;9.45;;;16.10;99.90;;;;;;6160758;23;20120;-79
2021/07/20 03:35:00;;;;;;;18.20;9.75;;;16.10;99.90;;;;;;6163876;23;20021;-80
2021/07/20 03:37:26;;;;;;;16.05;9.63;;;16.10;99.90;;;;;;6124769;23;20032;-80
2021/07/20 03:39:55;;;;;;;17.00;10.00;;;16.10;99.90;;;;;;6163842;23;20010;-79
2021/07/20 03:42:23;;;;;;;15.65;9.82;;;16.00;99.90;;;;;;6135631;23;20021;-79
2021/07/20 03:44:50;;;;;;;16.75;9.52;;;16.10;99.90;;;;;;6163246;23;20018;-78
2021/07/20 03:47:16;;;;;;;15.52;9.77;;;16.10;99.90;;;;;;6151259;23;20013;-80
2021/07/20 03:49:43;;;;;;;13.63;9.30;;;16.00;99.90;;;;;;6162487;23;20015;-78
2021/07/20 03:52:10;;;;;;;14.88;10.50;;;16.10;99.90;;;;;;6130754;23;20018;-78
2021/07/20 03:54:37;;;;;;;17.58;9.10;;;16.10;99.90;;;;;;6127624;23;20014;-79
2021/07/20 03:57:04;;;;;;;18.45;9.75;;;16.10;99.90;;;;;;6126707;23;20363;-78
2021/07/20 03:59:33;;;;;;;16.67;9.65;;;16.00;99.90;;;;;;6154004;23;20009;-79
2021/07/20 04:02:07;;;;;;;21.00;10.70;;;16.10;99.90;;;;;;6151006;23;20410;-78
2021/07/20 04:04:38;;;;;;;18.85;10.57;;;16.10;99.90;;;;;;6153146;23;20100;-79
2021/07/20 04:07:07;;;;;;;16.95;10.73;;;16.10;99.90;;;;;;6126813;23;20032;-79
2021/07/20 04:09:34;;;;;;;17.25;10.23;;;16.20;99.90;;;;;;6103483;23;20370;-79
2021/07/20 04:12:00;;;;;;;18.70;10.27;;;16.20;99.90;;;;;;6127965;23;20022;-79
2021/07/20 04:14:26;;;;;;;21.08;9.95;;;16.20;99.90;;;;;;6137989;23;20014;-80
2021/07/20 04:16:53;;;;;;;15.73;9.98;;;16.30;99.90;;;;;;6152954;23;20407;-79
2021/07/20 04:19:19;;;;;;;20.75;11.07;;;16.30;99.90;;;;;;6163565;23;20076;-80
2021/07/20 04:21:45;;;;;;;16.25;10.02;;;16.30;99.90;;;;;;6159807;23;20095;-80
2021/07/20 04:24:12;;;;;;;20.42;10.70;;;16.20;99.90;;;;;;6163721;23;20440;-79
2021/07/20 04:26:41;;;;;;;18.13;10.35;;;16.30;99.90;;;;;;6162907;23;20014;-79
2021/07/20 04:29:08;;;;;;;17.05;10.60;;;16.30;99.90;;;;;;6162565;23;20141;-79
2021/07/20 04:31:34;;;;;;;16.27;10.75;;;16.30;99.90;;;;;;6152287;23;20451;-79
2021/07/20 04:34:00;;;;;;;19.02;10.55;;;16.40;99.90;;;;;;6126629;23;20055;-79
2021/07/20 04:36:26;;;;;;;15.90;10.32;;;16.40;99.90;;;;;;6153115;23;20029;-78
2021/07/20 04:38:53;;;;;;;20.33;10.23;;;16.40;99.90;;;;;;6163540;23;20009;-79
2021/07/20 04:41:20;;;;;;;21.30;11.75;;;16.40;99.90;;;;;;6153753;23;20013;-79
2021/07/20 04:43:47;;;;;;;19.20;11.07;;;16.50;99.90;;;;;;6164312;23;20014;-80
2021/07/20 04:46:15;;;;;;;20.73;11.48;;;16.50;99.90;;;;;;6136277;23;20013;-80
2021/07/20 04:48:41;;;;;;;19.63;11.60;;;16.50;99.90;;;;;;6162600;23;20028;-79
2021/07/20 04:51:08;;;;;;;18.50;9.20;;;16.50;99.90;;;;;;6153255;23;20010;-80
2021/07/20 04:53:36;;;;;;;19.80;10.15;;;16.70;99.90;;;;;;6127063;23;20098;-79
2021/07/20 04:56:02;;;;;;;16.50;9.93;;;17.00;99.90;;;;;;6136673;23;20279;-81
2021/07/20 04:58:27;;;;;;;16.13;8.73;;;17.30;99.90;;;;;;6163226;23;20016;-79
2021/07/20 05:00:54;;;;;;;22.80;11.32;;;17.40;99.90;;;;;;6127207;23;20021;-79
2021/07/20 05:03:23;;;;;;;18.70;9.63;;;17.50;99.90;;;;;;6154866;23;20335;-79
2021/07/20 05:05:52;;;;;;;17.05;10.32;;;17.60;99.90;;;;;;6114788;23;20014;-79
2021/07/20 05:08:19;;;;;;;20.23;10.48;;;17.80;99.90;;;;;;6155497;23;20068;-79
2021/07/20 05:10:50;;;;;;;16.48;9.55;;;17.90;99.90;;;;;;6139640;23;20072;-81
2021/07/20 05:13:17;;;;;;;19.70;9.68;;;18.10;99.90;;;;;;6139031;23;20018;-78
2021/07/20 05:15:53;;;;;;;17.23;9.55;;;18.10;99.90;;;;;;6167278;23;20080;-77
2021/07/20 05:18:20;;;;;;;15.15;9.73;;;18.10;99.90;;;;;;6176332;23;20029;-76
2021/07/20 05:20:48;;;;;;;20.65;9.35;;;18.20;99.90;;;;;;6178416;23;20136;-76
2021/07/20 05:23:16;;;;;;;16.60;9.57;;;18.40;99.90;;;;;;6133001;23;20018;-79
2021/07/20 05:25:45;;;;;;;17.35;8.68;;;18.50;99.90;;;;;;6139972;23;20064;-77
2021/07/20 05:28:13;;;;;;;15.30;8.60;;;18.50;99.90;;;;;;6166095;23;20041;-77
2021/07/20 05:30:41;;;;;;;14.45;10.13;;;18.70;99.90;;;;;;6165793;23;20088;-76
2021/07/20 05:33:07;;;;;;;21.92;11.07;;;18.60;99.90;;;;;;6155018;23;20014;-74
2021/07/20 05:35:34;;;;;;;27.58;11.65;;;18.50;99.90;;;;;;6155350;23;20021;-76
2021/07/20 05:38:01;;;;;;;19.27;10.60;;;18.50;99.90;;;;;;6139038;23;20037;-78
2021/07/20 05:40:27;;;;;;;21.25;11.02;;;18.40;99.90;;;;;;6165057;23;20085;-81
2021/07/20 05:42:56;;;;;;;17.67;9.82;;;18.20;99.90;;;;;;6129177;23;20024;-80
2021/07/20 05:45:23;;;;;;;18.73;9.82;;;18.40;99.90;;;;;;6139005;23;20009;-79
2021/07/20 05:47:50;;;;;;;21.30;10.48;;;18.50;99.90;;;;;;6157092;23;20071;-76
2021/07/20 05:50:18;;;;;;;21.00;9.95;;;18.50;99.90;;;;;;6128978;23;20017;-75
2021/07/20 05:52:50;;;;;;;24.90;10.65;;;18.50;99.90;;;;;;6158860;23;20029;-75
2021/07/20 05:55:19;;;;;;;32.08;10.88;;;18.20;99.90;;;;;;6139003;23;20092;-76
2021/07/20 05:57:47;;;;;;;16.98;10.25;;;18.00;99.90;;;;;;6138792;23;20442;-75
2021/07/20 06:00:15;;;;;;;22.85;10.75;;;18.00;99.90;;;;;;6139044;23;20014;-75
2021/07/20 06:02:41;;;;;;;19.70;10.52;;;17.90;99.90;;;;;;6164878;23;20010;-75
2021/07/20 06:05:12;;;;;;;17.58;10.13;;;17.90;99.90;;;;;;6130458;23;20037;-76
2021/07/20 06:07:38;;;;;;;19.83;10.23;;;17.80;99.90;;;;;;6133188;23;20014;-76
2021/07/20 06:10:04;;;;;;;21.30;10.27;;;17.90;99.90;;;;;;6139059;23;20045;-76
2021/07/20 06:12:31;;;;;;;19.73;9.43;;;17.90;99.90;;;;;;6138294;23;20013;-75
2021/07/20 06:14:58;;;;;;;23.48;10.57;;;17.90;99.90;;;;;;6165102;23;20033;-75
2021/07/20 06:17:24;;;;;;;21.10;10.30;;;17.90;99.90;;;;;;6103378;23;20128;-75
2021/07/20 06:19:55;;;;;;;18.33;9.43;;;17.90;99.90;;;;;;6165068;23;20025;-75
2021/07/20 06:22:27;;;;;;;24.80;11.10;;;17.90;99.90;;;;;;6134891;23;20009;-75
2021/07/20 06:24:53;;;;;;;25.75;10.80;;;18.00;99.90;;;;;;6138331;23;20020;-75
2021/07/20 06:27:21;;;;;;;21.08;11.07;;;18.10;99.90;;;;;;6164297;23;20014;-75
2021/07/20 06:29:53;;;;;;;18.20;9.88;;;18.00;99.90;;;;;;6138475;23;20108;-75
2021/07/20 06:32:20;;;;;;;21.83;10.07;;;18.10;99.90;;;;;;6163889;23;20184;-75
2021/07/20 06:34:46;;;;;;;19.42;9.70;;;18.00;99.90;;;;;;6154873;23;20017;-76
2021/07/20 06:37:14;;;;;;;14.93;9.82;;;18.10;99.90;;;;;;6161771;23;20496;-75
2021/07/20 06:39:43;;;;;;;17.70;9.45;;;18.20;99.90;;;;;;6138168;23;20021;-75
2021/07/20 06:42:10;;;;;;;38.05;11.30;;;18.30;99.90;;;;;;6164628;23;20040;-76
2021/07/20 06:44:37;;;;;;;18.60;10.02;;;18.30;99.90;;;;;;6138737;23;20014;-76
2021/07/20 06:47:04;;;;;;;25.83;10.23;;;18.30;99.90;;;;;;6154268;23;20108;-76
2021/07/20 06:49:31;;;;;;;34.97;10.45;;;18.40;99.90;;;;;;6164949;23;20020;-76
2021/07/20 06:51:57;;;;;;;40.58;10.70;;;18.50;99.90;;;;;;6161614;23;20009;-76
2021/07/20 06:54:23;;;;;;;45.83;11.10;;;18.40;99.90;;;;;;6164748;23;20435;-76
2021/07/20 06:56:53;;;;;;;36.60;10.30;;;18.40;99.90;;;;;;6128428;23;20486;-76
2021/07/20 06:59:20;;;;;;;17.98;9.73;;;18.50;99.90;;;;;;6127650;23;20076;-76
2021/07/20 07:01:47;;;;;;;14.18;8.63;;;18.40;99.90;;;;;;6163079;23;20088;-77
2021/07/20 07:04:18;;;;;;;15.98;8.60;;;18.30;99.90;;;;;;6127917;23;20108;-77
2021/07/20 07:06:47;;;;;;;14.45;9.00;;;18.20;99.90;;;;;;6127189;23;20017;-76
2021/07/20 07:09:14;;;;;;;16.05;9.07;;;18.40;99.90;;;;;;6163906;23;20020;-75
2021/07/20 07:11:41;;;;;;;14.13;8.60;;;18.30;99.90;;;;;;6137971;23;20427;-75
2021/07/20 07:14:09;;;;;;;14.40;9.07;;;18.40;99.90;;;;;;6127204;23;20022;-77
2021/07/20 07:16:36;;;;;;;14.85;8.73;;;18.40;99.90;;;;;;6126944;23;20028;-78
2021/07/20 07:19:03;;;;;;;16.60;9.00;;;18.50;99.90;;;;;;6164222;23;20013;-76
2021/07/20 07:21:31;;;;;;;12.23;8.50;;;18.50;99.90;;;;;;6127413;23;20013;-75
2021/07/20 07:23:58;;;;;;;14.50;8.90;;;18.60;99.90;;;;;;6127061;23;20380;-75
2021/07/20 07:26:24;;;;;;;17.35;8.73;;;18.50;99.90;;;;;;6127446;23;20021;-75
2021/07/20 07:28:52;;;;;;;12.45;7.75;;;18.70;99.90;;;;;;6127799;23;20040;-75
2021/07/20 07:31:19;;;;;;;11.50;8.35;;;18.70;99.90;;;;;;6126736;23;20028;-76
2021/07/20 07:33:46;;;;;;;14.57;8.10;;;18.70;99.90;;;;;;6163867;23;20013;-75
2021/07/20 07:36:15;;;;;;;14.00;8.43;;;18.60;99.90;;;;;;6163996;23;20497;-75
2021/07/20 07:38:44;;;;;;;14.23;8.85;;;18.60;99.90;;;;;;6129406;23;20009;-75
2021/07/20 07:41:14;;;;;;;13.85;8.88;;;18.60;99.90;;;;;;6163961;23;20019;-75
2021/07/20 07:43:40;;;;;;;13.30;8.90;;;18.80;99.90;;;;;;6127461;23;20048;-75
2021/07/20 07:46:09;;;;;;;17.95;9.30;;;18.90;99.90;;;;;;6137831;23;20081;-75
2021/07/20 07:48:38;;;;;;;13.77;8.98;;;18.80;99.90;;;;;;6121576;23;20101;-75
2021/07/20 07:51:06;;;;;;;15.50;9.05;;;18.80;99.90;;;;;;6134337;23;20018;-74
2021/07/20 07:53:34;;;;;;;12.00;8.63;;;18.90;99.90;;;;;;6122768;23;20466;-74
2021/07/20 07:56:01;;;;;;;10.15;7.85;;;18.90;99.90;;;;;;6122485;23;20018;-74
2021/07/20 07:58:30;;;;;;;12.15;7.90;;;19.00;99.90;;;;;;6134141;23;20020;-75
2021/07/20 08:00:58;;;;;;;11.20;7.93;;;19.10;99.90;;;;;;6134894;23;20048;-75
2021/07/20 08:03:29;;;;;;;14.55;8.30;;;19.10;99.90;;;;;;6133006;23;20089;-74
2021/07/20 08:06:00;;;;;;;10.93;7.35;;;19.10;99.90;;;;;;6124766;23;20026;-75
2021/07/20 08:08:26;;;;;;;10.10;6.88;;;19.10;99.90;;;;;;6125375;23;20022;-75
2021/07/20 08:10:53;;;;;;;13.82;7.25;;;19.00;99.90;;;;;;6123326;23;20017;-75
2021/07/20 08:13:20;;;;;;;12.23;7.00;;;19.20;99.90;;;;;;6133161;23;20020;-74
2021/07/20 08:15:52;;;;;;;11.55;6.63;;;19.40;99.90;;;;;;6125054;23;20014;-74
2021/07/20 08:18:21;;;;;;;10.52;6.55;;;19.60;99.90;;;;;;6134305;23;20026;-74
2021/07/20 08:20:52;;;;;;;7.38;5.07;;;19.50;99.90;;;;;;6123321;23;20411;-74
2021/07/20 08:23:19;;;;;;;9.82;5.40;;;19.30;99.90;;;;;;6127659;23;20028;-75
2021/07/20 08:25:50;;;;;;;8.60;5.05;;;19.30;99.90;;;;;;6122052;23;20089;-75
2021/07/20 08:28:58;;;;;;;8.50;5.50;;;19.30;99.90;;;;;;6124413;23;20056;-75
2021/07/20 08:31:27;;;;;;;6.00;4.68;;;19.40;99.90;;;;;;6062759;23;20098;-75
2021/07/20 08:33:56;;;;;;;8.18;5.40;;;19.40;99.90;;;;;;6039695;23;20029;-75
2021/07/20 08:36:23;;;;;;;7.18;5.03;;;19.40;99.90;;;;;;6040483;23;20308;-75
2021/07/20 08:38:53;;;;;;;9.00;5.35;;;19.60;99.90;;;;;;6041457;23;20081;-75
2021/07/20 08:41:36;;;;;;;10.15;5.47;;;19.80;99.90;;;;;;6041438;23;20027;-75
2021/07/20 08:44:13;;;;;;;12.75;5.50;;;20.00;99.90;;;;;;6065045;23;20018;-75
2021/07/20 08:47:03;;;;;;;9.18;5.18;;;20.30;99.90;;;;;;6064595;23;20566;-75
2021/07/20 08:49:49;;;;;;;7.38;4.85;;;20.40;99.90;;;;;;6067270;23;20093;-75
2021/07/20 08:52:20;;;;;;;8.93;5.15;;;20.70;99.90;;;;;;6072880;23;20023;-75
2021/07/20 08:54:50;;;;;;;9.20;5.40;;;20.90;99.90;;;;;;6075091;23;20101;-77
2021/07/20 08:57:24;;;;;;;8.40;5.70;;;21.00;99.90;;;;;;6081148;23;20022;-76
2021/07/20 09:00:01;;;;;;;8.13;5.72;;;21.10;99.90;;;;;;6081242;23;20093;-76
2021/07/20 09:03:04;;;;;;;9.38;6.50;;;21.00;99.90;;;;;;6071536;23;20015;-76
2021/07/20 09:05:43;;;;;;;9.05;6.13;;;20.70;99.90;;;;;;6013432;23;20039;-77
2021/07/20 09:08:24;;;;;;;8.15;6.15;;;20.90;99.90;;;;;;6043957;23;20029;-77
2021/07/20 09:10:56;;;;;;;9.60;6.60;;;20.60;99.90;;;;;;6066591;23;20078;-77
2021/07/20 09:13:32;;;;;;;9.13;6.20;;;20.60;99.90;;;;;;6075782;23;20015;-77
2021/07/20 09:16:08;;;;;;;7.97;5.47;;;20.50;99.90;;;;;;6066206;23;20086;-77
2021/07/20 09:18:47;;;;;;;8.75;5.68;;;20.40;99.90;;;;;;6065390;23;20029;-77
2021/07/20 09:21:16;;;;;;;8.02;5.45;;;20.40;99.90;;;;;;6066225;23;20102;-77
2021/07/20 09:23:54;;;;;;;10.32;5.20;;;20.60;99.90;;;;;;6065888;23;20470;-77
2021/07/20 09:26:23;;;;;;;8.02;5.57;;;20.70;99.90;;;;;;6065290;23;20023;-77
2021/07/20 09:29:01;;;;;;;5.65;4.20;;;20.60;99.90;;;;;;6042205;23;20019;-77
2021/07/20 09:31:45;;;;;;;4.32;3.92;;;21.00;99.90;;;;;;6050942;23;20038;-77
2021/07/20 09:34:50;;;;;;;6.85;4.10;;;21.50;99.90;;;;;;6042028;23;20070;-77
2021/07/20 09:38:02;;;;;;;8.15;4.80;;;21.70;99.90;;;;;;6073972;23;20443;-77
2021/07/20 09:41:08;;;;;;;7.38;5.10;;;21.80;99.90;;;;;;6052390;23;20094;-76
2021/07/20 09:43:37;;;;;;;5.80;4.53;;;22.10;99.50;;;;;;6066880;23;20086;-77
2021/07/20 09:46:06;;;;;;;6.72;5.07;;;21.70;99.90;;;;;;6075592;23;20015;-77
2021/07/20 09:49:00;;;;;;;7.85;4.35;;;21.90;99.90;;;;;;6065212;23;20027;-77
2021/07/20 09:51:35;;;;;;;5.30;4.25;;;21.80;99.90;;;;;;6062521;23;20180;-76
2021/07/20 09:54:12;;;;;;;;;;;21.70;99.90;;;;;;6065827;23;20045;-76
2021/07/20 09:57:13;;;;;;;7.82;4.50;;;21.40;99.90;;;;;;6074997;23;20327;-76
2021/07/20 09:59:46;;;;;;;7.22;4.20;;;21.40;99.90;;;;;;5953588;24;20017;-75
2021/07/20 10:02:24;;;;;;;5.28;4.30;;;21.30;99.90;;;;;;5951761;24;20032;-76
2021/07/20 10:05:07;;;;;;;4.63;4.20;;;21.20;99.90;;;;;;5929622;24;20497;-76
2021/07/20 10:08:03;;;;;;;8.45;4.85;;;21.10;99.90;;;;;;5929912;24;20025;-76
2021/07/20 10:10:39;;;;;;;;;;;21.00;99.90;;;;;;5871229;24;20143;-75
2021/07/20 10:13:14;;;;;;;6.53;4.75;;;21.00;99.90;;;;;;5869831;24;20002;-75
2021/07/20 10:15:43;;;;;;;6.65;4.78;;;21.30;99.90;;;;;;5869897;24;20471;-76
2021/07/20 10:18:20;;;;;;;6.95;4.95;;;21.20;99.90;;;;;;5869837;24;20026;-75
2021/07/20 10:20:53;;;;;;;6.93;4.82;;;21.50;99.90;;;;;;5920856;24;20017;-76
2021/07/20 10:23:36;;;;;;;6.57;5.00;;;22.10;99.90;;;;;;5928342;24;20017;-77
2021/07/20 10:26:16;;;;;;;7.03;4.75;;;22.20;99.90;;;;;;5933673;24;20021;-76
2021/07/20 10:28:48;;;;;;;8.95;5.20;;;22.40;99.90;;;;;;5926619;24;20021;-76
2021/07/20 10:31:53;;;;;;;6.95;4.85;;;22.50;99.90;;;;;;5924675;24;20017;-76
2021/07/20 10:34:25;;;;;;;5.50;4.55;;;22.40;99.90;;;;;;5926847;23;20017;-77
2021/07/20 10:36:53;;;;;;;7.75;5.30;;;22.70;99.90;;;;;;5960053;23;20023;-78
2021/07/20 10:39:34;;;;;;;5.95;4.97;;;22.70;99.90;;;;;;6007995;23;20023;-78
2021/07/20 10:42:08;;;;;;;6.90;5.22;;;22.80;99.90;;;;;;6008055;23;20022;-77
2021/07/20 10:45:13;;;;;;;5.60;4.57;;;22.50;99.90;;;;;;6019042;23;20116;-78
2021/07/20 10:48:21;;;;;;;9.43;4.95;;;22.50;99.90;;;;;;6067294;23;20033;-76
2021/07/20 10:51:12;;;;;;;8.07;4.85;;;22.60;99.90;;;;;;6085204;23;20076;-77
2021/07/20 10:53:51;;;;;;;5.72;4.53;;;22.70;99.90;;;;;;6122990;23;20521;-77
2021/07/20 10:56:25;;;;;;;7.43;4.68;;;22.60;99.90;;;;;;6124003;23;20018;-81
2021/07/20 10:59:18;;;;;;;7.80;4.68;;;22.60;99.90;;;;;;6123381;23;20386;-78
2021/07/20 11:02:01;;;;;;;7.60;4.63;;;22.70;99.90;;;;;;6133926;23;20014;-77
2021/07/20 11:04:59;;;;;;;8.10;4.70;;;22.70;99.90;;;;;;6124162;23;20014;-75
2021/07/20 11:07:35;;;;;;;6.93;4.75;;;22.40;99.90;;;;;;6132105;23;20022;-76
2021/07/20 11:10:09;;;;;;;6.97;4.35;;;22.60;99.90;;;;;;6122544;23;20024;-76
2021/07/20 11:12:38;;;;;;;5.72;4.38;;;22.60;99.90;;;;;;6122638;23;20014;-75
2021/07/20 11:15:05;;;;;;;7.07;4.35;;;22.90;99.90;;;;;;6133312;23;20041;-75
2021/07/20 11:17:34;;;;;;;6.38;4.40;;;23.10;99.90;;;;;;6133956;23;20017;-75
2021/07/20 11:20:05;;;;;;;7.25;4.50;;;22.80;99.90;;;;;;6122561;23;20084;-75
2021/07/20 11:22:32;;;;;;;6.05;4.40;;;22.90;99.90;;;;;;6122821;23;20021;-75
2021/07/20 11:24:58;;;;;;;6.22;4.40;;;22.90;99.90;;;;;;6124893;23;20017;-76
2021/07/20 11:27:25;;;;;;;5.78;4.13;;;23.00;99.90;;;;;;6124344;23;20076;-76
2021/07/20 11:29:51;;;;;;;5.18;4.10;;;23.00;99.90;;;;;;6134254;23;20025;-75
2021/07/20 11:32:31;;;;;;;5.50;4.18;;;23.10;99.90;;;;;;6121442;23;20088;-77
2021/07/20 11:35:09;;;;;;;7.15;4.03;;;22.90;99.90;;;;;;6122970;23;20021;-77
2021/07/20 11:37:42;;;;;;;5.65;4.20;;;23.00;99.90;;;;;;6130347;23;20014;-77
2021/07/20 11:40:13;;;;;;;5.43;4.10;;;22.90;99.90;;;;;;6097674;23;20022;-77
2021/07/20 11:42:56;;;;;;;5.28;3.53;;;23.10;99.90;;;;;;6123884;23;20030;-78
2021/07/20 11:45:26;;;;;;;4.95;4.18;;;23.50;99.90;;;;;;6123202;23;20022;-77
2021/07/20 11:48:18;;;;;;;8.57;4.22;;;23.50;99.90;;;;;;6145367;23;20052;-79
2021/07/20 11:50:57;;;;;;;5.22;3.80;;;23.70;99.60;;;;;;6153217;23;20109;-78
2021/07/20 11:53:35;;;;;;;5.25;3.95;;;23.40;99.90;;;;;;6159156;23;20438;-78
2021/07/20 11:56:24;;;;;;;6.03;3.80;;;23.10;99.90;;;;;;6128267;23;20041;-78
2021/07/20 11:59:08;;;;;;;5.57;3.60;;;22.70;99.90;;;;;;6128362;23;20017;-78
2021/07/20 12:01:58;;;;;;;4.63;3.78;;;22.40;99.90;;;;;;6153714;23;20092;-78
2021/07/20 12:04:45;;;;;;;5.82;4.05;;;22.20;99.90;;;;;;6128131;23;20020;-78
2021/07/20 12:07:40;;;;;;;5.13;3.70;;;22.00;99.90;;;;;;6163828;23;20021;-78
2021/07/20 12:10:24;;;;;;;5.82;4.00;;;22.00;99.90;;;;;;6164499;23;20025;-78
2021/07/20 12:12:57;;;;;;;8.50;3.80;;;22.20;99.90;;;;;;6129966;23;20025;-78
2021/07/20 12:15:26;;;;;;;7.05;3.92;;;22.40;99.90;;;;;;6166730;23;20009;-78
2021/07/20 12:17:53;;;;;;;5.97;3.95;;;22.60;99.90;;;;;;6129247;23;20140;-77
2021/07/20 12:20:22;;;;;;;9.85;3.55;;;22.60;99.90;;;;;;6129170;23;20391;-78
2021/07/20 12:22:55;;;;;;;5.57;3.72;;;23.40;99.90;;;;;;6165292;23;20334;-78
2021/07/20 12:25:22;;;;;;;8.50;3.72;;;23.60;99.90;;;;;;6115195;23;20060;-77
2021/07/20 12:27:51;;;;;;;6.78;3.92;;;24.20;99.90;;;;;;6128815;23;20394;-81
2021/07/20 12:30:20;;;;;;;10.15;3.50;;;24.30;99.90;;;;;;6129315;23;20052;-78
2021/07/20 12:32:46;;;;;;;4.22;3.50;;;24.30;99.90;;;;;;6165005;23;20018;-78
2021/07/20 12:35:21;;;;;;;11.60;4.00;;;24.20;99.40;;;;;;6165389;23;20017;-80
2021/07/20 12:38:03;;;;;;;6.20;3.63;;;23.60;99.90;;;;;;6129101;23;20061;-79
2021/07/20 12:40:31;;;;;;;4.28;3.50;;;23.40;99.90;;;;;;6129791;23;20018;-80
2021/07/20 12:43:14;;;;;;;4.68;3.40;;;23.40;99.90;;;;;;6165690;23;20434;-79
2021/07/20 12:45:44;;;;;;;4.85;3.55;;;22.90;99.90;;;;;;6104177;23;20022;-78
2021/07/20 12:48:27;;;;;;;4.57;3.40;;;22.90;99.90;;;;;;6122972;23;20804;-79
2021/07/20 12:50:55;;;;;;;5.93;3.60;;;23.20;99.90;;;;;;6124564;23;20025;-80
2021/07/20 12:53:21;;;;;;;4.65;3.50;;;22.80;99.90;;;;;;6123076;23;20033;-79
2021/07/20 12:55:47;;;;;;;4.05;3.38;;;22.90;99.90;;;;;;6136000;23;20427;-80
2021/07/20 12:58:20;;;;;;;6.55;4.00;;;22.70;99.90;;;;;;6098513;23;20029;-79
2021/07/20 13:00:47;;;;;;;4.07;3.47;;;23.20;99.90;;;;;;6129352;23;20014;-80
2021/07/20 13:03:14;;;;;;;6.40;3.70;;;23.30;99.90;;;;;;6122973;23;20024;-79